sensor_id;sensor_type;location;lat;lon;timestamp;pressure;altitude;pressure_sealevel;temperature;humidity
65758;BME280;52495;52.208;5.158;2024-03-08T00:00:59;101819.56;;;4.09;99.68
65758;BME280;52495;52.208;5.158;2024-03-08T00:03:25;101816.97;;;4.07;99.55
65758;BME280;52495;52.208;5.158;2024-03-08T00:05:54;101808.31;;;4.02;99.51
65758;BME280;52495;52.208;5.158;2024-03-08T00:08:22;101808.28;;;4.01;99.92
65758;BME280;52495;52.208;5.158;2024-03-08T00:10:50;101808.28;;;4.01;99.67
65758;BME280;52495;52.208;5.158;2024-03-08T00:13:17;101801.56;;;4.04;99.53
65758;BME280;52495;52.208;5.158;2024-03-08T00:15:44;101797.16;;;3.99;98.96
65758;BME280;52495;52.208;5.158;2024-03-08T00:18:11;101798.75;;;3.95;99.57
65758;BME280;52495;52.208;5.158;2024-03-08T00:20:38;101800.41;;;3.93;99.83
65758;BME280;52495;52.208;5.158;2024-03-08T00:23:04;101791.09;;;3.95;99.30
65758;BME280;52495;52.208;5.158;2024-03-08T00:25:33;101791.97;;;3.95;99.04
65758;BME280;52495;52.208;5.158;2024-03-08T00:28:01;101794.41;;;3.91;98.87
65758;BME280;52495;52.208;5.158;2024-03-08T00:30:28;101788.38;;;3.89;98.81
65758;BME280;52495;52.208;5.158;2024-03-08T00:32:56;101793.53;;;3.90;98.56
65758;BME280;52495;52.208;5.158;2024-03-08T00:35:23;101793.38;;;3.84;98.79
65758;BME280;52495;52.208;5.158;2024-03-08T00:37:50;101783.94;;;3.82;98.96
65758;BME280;52495;52.208;5.158;2024-03-08T00:40:17;101783.00;;;3.78;98.93
65758;BME280;52495;52.208;5.158;2024-03-08T00:42:46;101782.19;;;3.79;98.81
65758;BME280;52495;52.208;5.158;2024-03-08T00:45:13;101785.47;;;3.75;98.81
65758;BME280;52495;52.208;5.158;2024-03-08T00:47:39;101781.16;;;3.72;98.99
65758;BME280;52495;52.208;5.158;2024-03-08T00:50:10;101778.59;;;3.72;98.70
65758;BME280;52495;52.208;5.158;2024-03-08T00:52:37;101775.91;;;3.68;99.06
65758;BME280;52495;52.208;5.158;2024-03-08T00:55:04;101776.94;;;3.74;98.56
65758;BME280;52495;52.208;5.158;2024-03-08T00:57:31;101773.31;;;3.66;98.32
65758;BME280;52495;52.208;5.158;2024-03-08T00:59:59;101769.94;;;3.67;98.30
65758;BME280;52495;52.208;5.158;2024-03-08T01:02:26;101763.94;;;3.65;98.08
65758;BME280;52495;52.208;5.158;2024-03-08T01:04:54;101757.91;;;3.63;98.18
65758;BME280;52495;52.208;5.158;2024-03-08T01:07:21;101756.09;;;3.59;97.97
65758;BME280;52495;52.208;5.158;2024-03-08T01:09:48;101755.06;;;3.52;98.10
65758;BME280;52495;52.208;5.158;2024-03-08T01:12:15;101759.63;;;3.64;97.63
65758;BME280;52495;52.208;5.158;2024-03-08T01:14:42;101753.41;;;3.53;97.77
65758;BME280;52495;52.208;5.158;2024-03-08T01:17:10;101747.41;;;3.52;97.85
65758;BME280;52495;52.208;5.158;2024-03-08T01:19:37;101738.03;;;3.51;97.35
65758;BME280;52495;52.208;5.158;2024-03-08T01:22:04;101734.59;;;3.49;97.48
65758;BME280;52495;52.208;5.158;2024-03-08T01:24:31;101728.78;;;3.55;96.66
65758;BME280;52495;52.208;5.158;2024-03-08T01:26:58;101724.22;;;3.44;96.97
65758;BME280;52495;52.208;5.158;2024-03-08T01:29:25;101724.19;;;3.43;97.33
65758;BME280;52495;52.208;5.158;2024-03-08T01:31:51;101723.91;;;3.32;97.63
65758;BME280;52495;52.208;5.158;2024-03-08T01:34:20;101717.94;;;3.31;97.57
65758;BME280;52495;52.208;5.158;2024-03-08T01:36:47;101704.31;;;3.31;97.61
65758;BME280;52495;52.208;5.158;2024-03-08T01:39:14;101711.78;;;3.25;97.55
65758;BME280;52495;52.208;5.158;2024-03-08T01:41:40;101705.81;;;3.23;97.81
65758;BME280;52495;52.208;5.158;2024-03-08T01:44:07;101709.28;;;3.26;97.45
65758;BME280;52495;52.208;5.158;2024-03-08T01:46:34;101712.50;;;3.19;97.29
65758;BME280;52495;52.208;5.158;2024-03-08T01:49:02;101700.63;;;3.19;97.31
65758;BME280;52495;52.208;5.158;2024-03-08T01:51:30;101693.72;;;3.17;97.51
65758;BME280;52495;52.208;5.158;2024-03-08T01:53:57;101692.03;;;3.16;97.72
65758;BME280;52495;52.208;5.158;2024-03-08T01:56:26;101688.50;;;3.12;97.83
65758;BME280;52495;52.208;5.158;2024-03-08T01:58:53;101700.44;;;3.13;97.98
65758;BME280;52495;52.208;5.158;2024-03-08T02:01:21;101691.03;;;3.11;98.12
65758;BME280;52495;52.208;5.158;2024-03-08T02:03:49;101691.13;;;3.14;97.24
65758;BME280;52495;52.208;5.158;2024-03-08T02:06:16;101684.91;;;3.06;97.64
65758;BME280;52495;52.208;5.158;2024-03-08T02:08:45;101676.31;;;3.02;97.96
65758;BME280;52495;52.208;5.158;2024-03-08T02:11:12;101685.09;;;3.12;97.52
65758;BME280;52495;52.208;5.158;2024-03-08T02:13:39;101684.13;;;3.08;97.09
65758;BME280;52495;52.208;5.158;2024-03-08T02:16:06;101685.72;;;3.03;97.08
65758;BME280;52495;52.208;5.158;2024-03-08T02:18:34;101680.53;;;3.01;97.45
65758;BME280;52495;52.208;5.158;2024-03-08T02:21:04;101682.97;;;2.97;97.71
65758;BME280;52495;52.208;5.158;2024-03-08T02:23:31;101672.75;;;2.95;97.43
65758;BME280;52495;52.208;5.158;2024-03-08T02:25:58;101671.03;;;2.96;97.47
65758;BME280;52495;52.208;5.158;2024-03-08T02:28:26;101665.19;;;2.98;97.22
65758;BME280;52495;52.208;5.158;2024-03-08T02:30:53;101659.09;;;2.93;96.82
65758;BME280;52495;52.208;5.158;2024-03-08T02:33:22;101655.75;;;2.96;96.70
65758;BME280;52495;52.208;5.158;2024-03-08T02:35:49;101652.97;;;2.88;96.77
65758;BME280;52495;52.208;5.158;2024-03-08T02:38:19;101650.34;;;2.85;97.13
65758;BME280;52495;52.208;5.158;2024-03-08T02:40:47;101652.88;;;2.85;96.80
65758;BME280;52495;52.208;5.158;2024-03-08T02:43:15;101648.53;;;2.81;97.07
65758;BME280;52495;52.208;5.158;2024-03-08T02:45:43;101646.81;;;2.80;97.25
65758;BME280;52495;52.208;5.158;2024-03-08T02:48:11;101641.63;;;2.77;97.36
65758;BME280;52495;52.208;5.158;2024-03-08T02:50:38;101635.66;;;2.76;97.18
65758;BME280;52495;52.208;5.158;2024-03-08T02:53:08;101644.94;;;2.74;97.32
65758;BME280;52495;52.208;5.158;2024-03-08T02:55:36;101629.59;;;2.72;96.78
65758;BME280;52495;52.208;5.158;2024-03-08T02:58:04;101628.91;;;2.78;97.00
65758;BME280;52495;52.208;5.158;2024-03-08T03:00:31;101627.09;;;2.74;96.82
65758;BME280;52495;52.208;5.158;2024-03-08T03:02:58;101632.03;;;2.68;96.34
65758;BME280;52495;52.208;5.158;2024-03-08T03:05:25;101621.84;;;2.68;96.78
65758;BME280;52495;52.208;5.158;2024-03-08T03:07:51;101619.81;;;2.57;97.19
65758;BME280;52495;52.208;5.158;2024-03-08T03:10:19;101623.19;;;2.56;97.28
65758;BME280;52495;52.208;5.158;2024-03-08T03:12:48;101618.84;;;2.52;97.07
65758;BME280;52495;52.208;5.158;2024-03-08T03:15:15;101613.00;;;2.56;97.16
65758;BME280;52495;52.208;5.158;2024-03-08T03:17:45;101616.34;;;2.54;97.62
65758;BME280;52495;52.208;5.158;2024-03-08T03:20:13;101602.53;;;2.46;97.46
65758;BME280;52495;52.208;5.158;2024-03-08T03:22:40;101605.88;;;2.45;97.65
65758;BME280;52495;52.208;5.158;2024-03-08T03:25:10;101610.00;;;2.41;98.08
65758;BME280;52495;52.208;5.158;2024-03-08T03:27:38;101606.63;;;2.40;97.57
65758;BME280;52495;52.208;5.158;2024-03-08T03:30:08;101604.09;;;2.42;97.34
65758;BME280;52495;52.208;5.158;2024-03-08T03:32:46;101603.97;;;2.37;97.08
65758;BME280;52495;52.208;5.158;2024-03-08T03:35:13;101606.44;;;2.34;97.32
65758;BME280;52495;52.208;5.158;2024-03-08T03:37:43;101603.03;;;2.34;97.67
65758;BME280;52495;52.208;5.158;2024-03-08T03:40:12;101597.94;;;2.34;97.93
65758;BME280;52495;52.208;5.158;2024-03-08T03:42:39;101598.88;;;2.37;97.74
65758;BME280;52495;52.208;5.158;2024-03-08T03:45:08;101591.94;;;2.33;97.83
65758;BME280;52495;52.208;5.158;2024-03-08T03:47:36;101589.47;;;2.35;97.37
65758;BME280;52495;52.208;5.158;2024-03-08T03:50:04;101593.69;;;2.34;97.57
65758;BME280;52495;52.208;5.158;2024-03-08T03:52:31;101591.13;;;2.34;97.40
65758;BME280;52495;52.208;5.158;2024-03-08T03:54:58;101585.00;;;2.27;97.59
65758;BME280;52495;52.208;5.158;2024-03-08T03:57:25;101585.91;;;2.30;97.65
65758;BME280;52495;52.208;5.158;2024-03-08T03:59:52;101589.28;;;2.28;97.38
65758;BME280;52495;52.208;5.158;2024-03-08T04:02:20;101578.88;;;2.21;97.82
65758;BME280;52495;52.208;5.158;2024-03-08T04:04:47;101577.13;;;2.20;98.26
65758;BME280;52495;52.208;5.158;2024-03-08T04:07:14;101582.22;;;2.20;97.89
65758;BME280;52495;52.208;5.158;2024-03-08T04:09:42;101581.44;;;2.22;97.98
65758;BME280;52495;52.208;5.158;2024-03-08T04:12:09;101577.91;;;2.17;97.85
65758;BME280;52495;52.208;5.158;2024-03-08T04:14:36;101577.91;;;2.17;97.91
65758;BME280;52495;52.208;5.158;2024-03-08T04:17:03;101563.44;;;2.16;98.56
65758;BME280;52495;52.208;5.158;2024-03-08T04:19:32;101572.69;;;2.12;97.74
65758;BME280;52495;52.208;5.158;2024-03-08T04:21:59;101568.34;;;2.10;97.90
65758;BME280;52495;52.208;5.158;2024-03-08T04:24:26;101571.63;;;2.06;98.59
65758;BME280;52495;52.208;5.158;2024-03-08T04:26:53;101566.47;;;2.03;98.31
65758;BME280;52495;52.208;5.158;2024-03-08T04:29:20;101564.84;;;2.05;98.40
65758;BME280;52495;52.208;5.158;2024-03-08T04:31:47;101570.81;;;2.07;98.09
65758;BME280;52495;52.208;5.158;2024-03-08T04:34:14;101563.91;;;2.03;97.51
65758;BME280;52495;52.208;5.158;2024-03-08T04:36:42;101556.94;;;1.97;97.77
65758;BME280;52495;52.208;5.158;2024-03-08T04:39:09;101557.81;;;1.97;97.60
65758;BME280;52495;52.208;5.158;2024-03-08T04:41:38;101559.44;;;1.95;98.13
65758;BME280;52495;52.208;5.158;2024-03-08T04:44:06;101562.22;;;2.03;97.50
65758;BME280;52495;52.208;5.158;2024-03-08T04:46:33;101558.59;;;1.95;97.74
65758;BME280;52495;52.208;5.158;2024-03-08T04:49:00;101550.19;;;1.97;97.41
65758;BME280;52495;52.208;5.158;2024-03-08T04:51:27;101555.25;;;1.96;97.62
65758;BME280;52495;52.208;5.158;2024-03-08T04:53:56;101552.81;;;2.01;96.78
65758;BME280;52495;52.208;5.158;2024-03-08T04:56:23;101549.13;;;1.91;97.20
65758;BME280;52495;52.208;5.158;2024-03-08T04:58:50;101554.22;;;1.91;97.48
65758;BME280;52495;52.208;5.158;2024-03-08T05:01:16;101551.63;;;1.89;97.55
65758;BME280;52495;52.208;5.158;2024-03-08T05:03:43;101545.69;;;1.90;97.86
65758;BME280;52495;52.208;5.158;2024-03-08T05:06:11;101549.94;;;1.90;97.50
65758;BME280;52495;52.208;5.158;2024-03-08T05:08:38;101540.47;;;1.86;97.22
65758;BME280;52495;52.208;5.158;2024-03-08T05:11:06;101542.25;;;1.88;97.08
65758;BME280;52495;52.208;5.158;2024-03-08T05:13:33;101539.56;;;1.84;97.44
65758;BME280;52495;52.208;5.158;2024-03-08T05:16:00;101541.38;;;1.86;97.65
65758;BME280;52495;52.208;5.158;2024-03-08T05:18:27;101536.34;;;1.89;97.06
65758;BME280;52495;52.208;5.158;2024-03-08T05:20:54;101533.78;;;1.89;97.01
65758;BME280;52495;52.208;5.158;2024-03-08T05:23:21;101539.75;;;1.90;96.99
65758;BME280;52495;52.208;5.158;2024-03-08T05:25:48;101529.50;;;1.88;96.91
65758;BME280;52495;52.208;5.158;2024-03-08T05:28:16;101538.81;;;1.86;96.46
65758;BME280;52495;52.208;5.158;2024-03-08T05:30:43;101533.72;;;1.86;96.46
65758;BME280;52495;52.208;5.158;2024-03-08T05:33:10;101532.94;;;1.89;96.36
65758;BME280;52495;52.208;5.158;2024-03-08T05:35:37;101527.81;;;1.87;96.16
65758;BME280;52495;52.208;5.158;2024-03-08T05:38:04;101523.47;;;1.85;96.37
65758;BME280;52495;52.208;5.158;2024-03-08T05:40:32;101526.16;;;1.89;95.91
65758;BME280;52495;52.208;5.158;2024-03-08T05:42:59;101529.47;;;1.87;95.74
65758;BME280;52495;52.208;5.158;2024-03-08T05:45:28;101524.47;;;1.90;96.20
65758;BME280;52495;52.208;5.158;2024-03-08T05:47:55;101524.47;;;1.90;95.51
65758;BME280;52495;52.208;5.158;2024-03-08T05:50:22;101522.75;;;1.89;95.61
65758;BME280;52495;52.208;5.158;2024-03-08T05:52:48;101518.44;;;1.86;95.89
65758;BME280;52495;52.208;5.158;2024-03-08T05:55:15;101517.56;;;1.86;95.77
65758;BME280;52495;52.208;5.158;2024-03-08T05:57:42;101525.16;;;1.84;95.66
65758;BME280;52495;52.208;5.158;2024-03-08T06:00:10;101519.25;;;1.85;95.43
65758;BME280;52495;52.208;5.158;2024-03-08T06:02:41;101517.66;;;1.89;95.63
65758;BME280;52495;52.208;5.158;2024-03-08T06:05:09;101514.16;;;1.85;94.79
65758;BME280;52495;52.208;5.158;2024-03-08T06:07:36;101514.88;;;1.81;95.04
65758;BME280;52495;52.208;5.158;2024-03-08T06:10:07;101510.72;;;1.83;95.38
65758;BME280;52495;52.208;5.158;2024-03-08T06:12:35;101503.97;;;1.85;94.76
65758;BME280;52495;52.208;5.158;2024-03-08T06:15:06;101501.38;;;1.84;94.87
65758;BME280;52495;52.208;5.158;2024-03-08T06:17:34;101508.09;;;1.81;94.68
65758;BME280;52495;52.208;5.158;2024-03-08T06:20:02;101500.47;;;1.81;95.32
65758;BME280;52495;52.208;5.158;2024-03-08T06:22:36;101503.00;;;1.81;95.60
65758;BME280;52495;52.208;5.158;2024-03-08T06:25:04;101500.47;;;1.81;95.29
65758;BME280;52495;52.208;5.158;2024-03-08T06:27:31;101507.34;;;1.84;95.25
65758;BME280;52495;52.208;5.158;2024-03-08T06:29:59;101504.84;;;1.86;95.13
65758;BME280;52495;52.208;5.158;2024-03-08T06:32:26;101505.75;;;1.88;94.77
65758;BME280;52495;52.208;5.158;2024-03-08T06:34:53;101514.22;;;1.88;95.08
65758;BME280;52495;52.208;5.158;2024-03-08T06:37:21;101504.91;;;1.87;94.53
65758;BME280;52495;52.208;5.158;2024-03-08T06:39:49;101497.25;;;1.87;94.47
65758;BME280;52495;52.208;5.158;2024-03-08T06:42:16;101504.13;;;1.90;94.47
65758;BME280;52495;52.208;5.158;2024-03-08T06:44:43;101498.22;;;1.92;94.61
65758;BME280;52495;52.208;5.158;2024-03-08T06:47:15;101500.84;;;1.94;94.46
65758;BME280;52495;52.208;5.158;2024-03-08T06:49:41;101499.25;;;1.97;94.16
65758;BME280;52495;52.208;5.158;2024-03-08T06:52:09;101495.81;;;1.97;94.03
65758;BME280;52495;52.208;5.158;2024-03-08T06:54:37;101496.81;;;2.02;93.90
65758;BME280;52495;52.208;5.158;2024-03-08T06:57:05;101491.72;;;2.02;94.17
65758;BME280;52495;52.208;5.158;2024-03-08T06:59:32;101501.09;;;2.03;94.15
65758;BME280;52495;52.208;5.158;2024-03-08T07:02:01;101488.25;;;2.00;93.83
65758;BME280;52495;52.208;5.158;2024-03-08T07:04:28;101485.69;;;1.99;94.24
65758;BME280;52495;52.208;5.158;2024-03-08T07:06:55;101488.44;;;2.05;93.84
65758;BME280;52495;52.208;5.158;2024-03-08T07:09:23;101485.91;;;2.06;93.51
65758;BME280;52495;52.208;5.158;2024-03-08T07:11:51;101479.19;;;2.08;93.54
65758;BME280;52495;52.208;5.158;2024-03-08T07:14:21;101476.78;;;2.15;93.11
65758;BME280;52495;52.208;5.158;2024-03-08T07:16:48;101486.22;;;2.17;92.61
65758;BME280;52495;52.208;5.158;2024-03-08T07:19:15;101491.53;;;2.25;92.45
65758;BME280;52495;52.208;5.158;2024-03-08T07:21:42;101482.88;;;2.20;92.48
65758;BME280;52495;52.208;5.158;2024-03-08T07:24:09;101482.06;;;2.21;92.37
65758;BME280;52495;52.208;5.158;2024-03-08T07:26:54;101479.72;;;2.28;92.64
65758;BME280;52495;52.208;5.158;2024-03-08T07:29:21;101479.63;;;2.25;92.40
65758;BME280;52495;52.208;5.158;2024-03-08T07:31:48;101473.91;;;2.34;92.39
65758;BME280;52495;52.208;5.158;2024-03-08T07:34:26;101467.38;;;2.44;92.41
65758;BME280;52495;52.208;5.158;2024-03-08T07:36:55;101470.97;;;2.51;91.73
65758;BME280;52495;52.208;5.158;2024-03-08T07:39:23;101465.31;;;2.63;91.49
65758;BME280;52495;52.208;5.158;2024-03-08T07:41:50;101460.28;;;2.64;91.05
65758;BME280;52495;52.208;5.158;2024-03-08T07:44:19;101454.28;;;2.64;90.77
65758;BME280;52495;52.208;5.158;2024-03-08T07:46:46;101457.94;;;2.73;90.58
65758;BME280;52495;52.208;5.158;2024-03-08T07:49:13;101454.59;;;2.76;90.62
65758;BME280;52495;52.208;5.158;2024-03-08T07:51:40;101452.28;;;2.85;90.55
65758;BME280;52495;52.208;5.158;2024-03-08T07:54:07;101450.75;;;2.92;90.84
65758;BME280;52495;52.208;5.158;2024-03-08T07:56:35;101441.66;;;3.03;90.30
65758;BME280;52495;52.208;5.158;2024-03-08T07:59:03;101440.91;;;3.08;90.51
65758;BME280;52495;52.208;5.158;2024-03-08T08:01:31;101433.41;;;3.14;89.65
65758;BME280;52495;52.208;5.158;2024-03-08T08:03:59;101440.34;;;3.19;89.10
65758;BME280;52495;52.208;5.158;2024-03-08T08:06:26;101438.78;;;3.26;89.18
65758;BME280;52495;52.208;5.158;2024-03-08T08:08:53;101435.47;;;3.30;89.18
65758;BME280;52495;52.208;5.158;2024-03-08T08:11:20;101432.19;;;3.36;89.04
65758;BME280;52495;52.208;5.158;2024-03-08T08:13:47;101431.47;;;3.42;88.63
65758;BME280;52495;52.208;5.158;2024-03-08T08:16:14;101425.63;;;3.47;87.49
65758;BME280;52495;52.208;5.158;2024-03-08T08:18:42;101418.13;;;3.55;87.34
65758;BME280;52495;52.208;5.158;2024-03-08T08:21:11;101420.72;;;3.57;86.56
65758;BME280;52495;52.208;5.158;2024-03-08T08:23:38;101412.34;;;3.62;86.92
65758;BME280;52495;52.208;5.158;2024-03-08T08:26:05;101417.63;;;3.72;86.23
65758;BME280;52495;52.208;5.158;2024-03-08T08:28:33;101409.19;;;3.74;85.99
65758;BME280;52495;52.208;5.158;2024-03-08T08:31:00;101408.53;;;3.86;85.37
65758;BME280;52495;52.208;5.158;2024-03-08T08:33:29;101400.97;;;3.91;85.01
65758;BME280;52495;52.208;5.158;2024-03-08T08:35:57;101401.09;;;3.97;84.66
65758;BME280;52495;52.208;5.158;2024-03-08T08:38:24;101394.38;;;4.04;84.47
65758;BME280;52495;52.208;5.158;2024-03-08T08:40:53;101387.53;;;4.01;83.52
65758;BME280;52495;52.208;5.158;2024-03-08T08:43:20;101389.53;;;4.18;84.14
65758;BME280;52495;52.208;5.158;2024-03-08T08:45:49;101382.00;;;4.24;83.52
65758;BME280;52495;52.208;5.158;2024-03-08T08:48:20;101395.81;;;4.35;83.34
65758;BME280;52495;52.208;5.158;2024-03-08T08:50:46;101384.81;;;4.39;82.19
65758;BME280;52495;52.208;5.158;2024-03-08T08:53:15;101390.00;;;4.44;81.86
65758;BME280;52495;52.208;5.158;2024-03-08T08:55:42;101382.59;;;4.60;82.62
65758;BME280;52495;52.208;5.158;2024-03-08T08:58:11;101374.06;;;4.61;80.47
65758;BME280;52495;52.208;5.158;2024-03-08T09:00:39;101372.41;;;4.63;79.83
65758;BME280;52495;52.208;5.158;2024-03-08T09:03:06;101366.75;;;4.84;79.10
65758;BME280;52495;52.208;5.158;2024-03-08T09:05:33;101369.31;;;4.82;79.08
65758;BME280;52495;52.208;5.158;2024-03-08T09:08:00;101373.63;;;4.86;78.72
65758;BME280;52495;52.208;5.158;2024-03-08T09:10:29;101367.03;;;5.01;79.59
65758;BME280;52495;52.208;5.158;2024-03-08T09:12:56;101361.91;;;5.04;79.08
65758;BME280;52495;52.208;5.158;2024-03-08T09:15:24;101360.28;;;5.09;78.53
65758;BME280;52495;52.208;5.158;2024-03-08T09:17:54;101348.63;;;5.28;78.16
65758;BME280;52495;52.208;5.158;2024-03-08T09:20:21;101351.25;;;5.35;76.51
65758;BME280;52495;52.208;5.158;2024-03-08T09:22:47;101352.91;;;5.32;76.01
65758;BME280;52495;52.208;5.158;2024-03-08T09:25:14;101344.44;;;5.37;76.91
65758;BME280;52495;52.208;5.158;2024-03-08T09:27:43;101336.81;;;5.41;76.12
65758;BME280;52495;52.208;5.158;2024-03-08T09:30:12;101341.97;;;5.44;75.70
65758;BME280;52495;52.208;5.158;2024-03-08T09:32:40;101329.25;;;5.51;75.67
65758;BME280;52495;52.208;5.158;2024-03-08T09:35:09;101329.38;;;5.63;76.70
65758;BME280;52495;52.208;5.158;2024-03-08T09:37:36;101327.81;;;5.76;75.58
65758;BME280;52495;52.208;5.158;2024-03-08T09:40:04;101330.47;;;5.85;75.57
65758;BME280;52495;52.208;5.158;2024-03-08T09:42:34;101318.56;;;5.90;74.92
65758;BME280;52495;52.208;5.158;2024-03-08T09:45:08;101309.22;;;5.96;73.91
65758;BME280;52495;52.208;5.158;2024-03-08T09:47:38;101307.66;;;6.07;74.11
65758;BME280;52495;52.208;5.158;2024-03-08T09:50:07;101296.59;;;6.13;73.88
65758;BME280;52495;52.208;5.158;2024-03-08T09:52:35;101297.50;;;6.19;73.75
65758;BME280;52495;52.208;5.158;2024-03-08T09:55:04;101290.81;;;6.40;73.52
65758;BME280;52495;52.208;5.158;2024-03-08T09:57:33;101281.41;;;6.39;72.57
65758;BME280;52495;52.208;5.158;2024-03-08T10:00:00;101281.50;;;6.53;72.74
65758;BME280;52495;52.208;5.158;2024-03-08T10:02:28;101278.97;;;6.56;72.36
65758;BME280;52495;52.208;5.158;2024-03-08T10:04:57;101269.66;;;6.71;71.85
65758;BME280;52495;52.208;5.158;2024-03-08T10:07:24;101269.66;;;6.77;70.08
65758;BME280;52495;52.208;5.158;2024-03-08T10:09:52;101262.00;;;6.84;70.34
65758;BME280;52495;52.208;5.158;2024-03-08T10:12:19;101265.47;;;6.90;70.97
65758;BME280;52495;52.208;5.158;2024-03-08T10:14:46;101259.47;;;6.92;68.93
65758;BME280;52495;52.208;5.158;2024-03-08T10:17:13;101256.09;;;7.01;69.01
65758;BME280;52495;52.208;5.158;2024-03-08T10:19:49;101252.72;;;7.11;67.36
65758;BME280;52495;52.208;5.158;2024-03-08T10:22:17;101249.31;;;7.22;68.35
65758;BME280;52495;52.208;5.158;2024-03-08T10:24:45;101249.34;;;7.23;68.19
65758;BME280;52495;52.208;5.158;2024-03-08T10:27:12;101239.94;;;7.30;68.30
65758;BME280;52495;52.208;5.158;2024-03-08T10:29:41;101238.25;;;7.37;66.85
65758;BME280;52495;52.208;5.158;2024-03-08T10:32:09;101227.97;;;7.43;66.37
65758;BME280;52495;52.208;5.158;2024-03-08T10:34:37;101220.28;;;7.41;66.27
65758;BME280;52495;52.208;5.158;2024-03-08T10:37:07;101217.72;;;7.51;66.55
65758;BME280;52495;52.208;5.158;2024-03-08T10:39:40;101210.88;;;7.57;66.46
65758;BME280;52495;52.208;5.158;2024-03-08T10:42:16;101204.03;;;7.67;64.63
65758;BME280;52495;52.208;5.158;2024-03-08T10:44:49;101198.03;;;7.79;64.34
65758;BME280;52495;52.208;5.158;2024-03-08T10:47:25;101191.19;;;7.83;64.11
65758;BME280;52495;52.208;5.158;2024-03-08T10:49:59;101191.16;;;7.89;64.69
65758;BME280;52495;52.208;5.158;2024-03-08T10:52:31;101176.59;;;8.02;64.82
65758;BME280;52495;52.208;5.158;2024-03-08T10:55:01;101174.88;;;8.09;65.13
65758;BME280;52495;52.208;5.158;2024-03-08T10:57:29;101166.28;;;8.20;64.43
65758;BME280;52495;52.208;5.158;2024-03-08T10:59:57;101160.25;;;8.29;63.70
65758;BME280;52495;52.208;5.158;2024-03-08T11:02:25;101153.44;;;8.27;62.81
65758;BME280;52495;52.208;5.158;2024-03-08T11:04:53;101164.53;;;8.35;61.95
65758;BME280;52495;52.208;5.158;2024-03-08T11:07:22;101152.50;;;8.39;61.52
65758;BME280;52495;52.208;5.158;2024-03-08T11:09:50;101153.38;;;8.53;60.46
65758;BME280;52495;52.208;5.158;2024-03-08T11:12:21;101145.66;;;8.48;60.14
65758;BME280;52495;52.208;5.158;2024-03-08T11:14:51;101143.94;;;8.52;60.23
65758;BME280;52495;52.208;5.158;2024-03-08T11:17:21;101137.88;;;8.62;60.34
65758;BME280;52495;52.208;5.158;2024-03-08T11:19:48;101131.84;;;8.68;61.07
65758;BME280;52495;52.208;5.158;2024-03-08T11:22:21;101130.13;;;8.73;59.69
65758;BME280;52495;52.208;5.158;2024-03-08T11:24:51;101120.63;;;8.81;59.77
65758;BME280;52495;52.208;5.158;2024-03-08T11:27:18;101117.22;;;8.75;57.86
65758;BME280;52495;52.208;5.158;2024-03-08T11:29:59;101110.34;;;8.77;57.16
65758;BME280;52495;52.208;5.158;2024-03-08T11:32:35;101101.78;;;8.72;58.51
65758;BME280;52495;52.208;5.158;2024-03-08T11:35:06;101102.59;;;8.81;58.86
65758;BME280;52495;52.208;5.158;2024-03-08T11:37:34;101088.84;;;8.86;57.68
65758;BME280;52495;52.208;5.158;2024-03-08T11:40:11;101085.34;;;8.98;57.36
65758;BME280;52495;52.208;5.158;2024-03-08T11:42:44;101081.00;;;9.04;57.27
65758;BME280;52495;52.208;5.158;2024-03-08T11:45:13;101066.41;;;9.05;57.12
65758;BME280;52495;52.208;5.158;2024-03-08T11:47:42;101068.06;;;9.14;58.21
65758;BME280;52495;52.208;5.158;2024-03-08T11:50:12;101051.63;;;9.25;56.83
65758;BME280;52495;52.208;5.158;2024-03-08T11:52:39;101050.72;;;9.31;56.74
65758;BME280;52495;52.208;5.158;2024-03-08T11:55:08;101038.69;;;9.33;55.74
65758;BME280;52495;52.208;5.158;2024-03-08T11:57:36;101036.09;;;9.38;55.75
65758;BME280;52495;52.208;5.158;2024-03-08T12:00:03;101035.97;;;9.50;55.48
65758;BME280;52495;52.208;5.158;2024-03-08T12:02:35;101029.94;;;9.51;55.18
65758;BME280;52495;52.208;5.158;2024-03-08T12:05:04;101025.63;;;9.53;54.68
65758;BME280;52495;52.208;5.158;2024-03-08T12:07:35;101028.13;;;9.64;55.82
65758;BME280;52495;52.208;5.158;2024-03-08T12:10:16;101023.75;;;9.71;55.52
65758;BME280;52495;52.208;5.158;2024-03-08T12:12:44;101013.31;;;9.80;54.12
65758;BME280;52495;52.208;5.158;2024-03-08T12:15:12;101003.78;;;9.89;55.04
65758;BME280;52495;52.208;5.158;2024-03-08T12:17:39;101002.81;;;9.97;53.49
65758;BME280;52495;52.208;5.158;2024-03-08T12:20:12;101010.56;;;9.96;53.72
65758;BME280;52495;52.208;5.158;2024-03-08T12:22:41;100995.81;;;10.07;53.46
65758;BME280;52495;52.208;5.158;2024-03-08T12:25:09;100990.56;;;10.13;54.67
65758;BME280;52495;52.208;5.158;2024-03-08T12:27:39;100986.09;;;10.25;53.68
65758;BME280;52495;52.208;5.158;2024-03-08T12:30:20;100993.75;;;10.34;53.23
65758;BME280;52495;52.208;5.158;2024-03-08T12:32:54;100988.53;;;10.37;52.11
65758;BME280;52495;52.208;5.158;2024-03-08T12:35:22;100983.34;;;10.42;52.04
65758;BME280;52495;52.208;5.158;2024-03-08T12:37:51;100975.56;;;10.45;51.97
65758;BME280;52495;52.208;5.158;2024-03-08T12:40:19;100975.44;;;10.51;51.59
65758;BME280;52495;52.208;5.158;2024-03-08T12:42:48;100973.72;;;10.52;50.71
65758;BME280;52495;52.208;5.158;2024-03-08T12:45:15;100958.16;;;10.56;50.53
65758;BME280;52495;52.208;5.158;2024-03-08T12:47:42;100974.56;;;10.52;50.56
65758;BME280;52495;52.208;5.158;2024-03-08T12:50:10;100963.25;;;10.61;50.80
65758;BME280;52495;52.208;5.158;2024-03-08T12:52:37;100955.50;;;10.62;50.76
65758;BME280;52495;52.208;5.158;2024-03-08T12:55:04;100951.19;;;10.63;50.70
65758;BME280;52495;52.208;5.158;2024-03-08T12:57:33;100944.13;;;10.74;50.89
65758;BME280;52495;52.208;5.158;2024-03-08T13:00:03;100952.59;;;10.83;51.07
65758;BME280;52495;52.208;5.158;2024-03-08T13:02:31;100945.59;;;10.89;50.69
65758;BME280;52495;52.208;5.158;2024-03-08T13:04:58;100948.06;;;10.96;50.85